sensor_id;sensor_type;location;lat;lon;timestamp;pressure;altitude;pressure_sealevel;temperature;humidity
10606;BME280;5350;42.698;23.148;2023-08-30T00:01:40;92800.78;;;19.66;100.00
10606;BME280;5350;42.698;23.148;2023-08-30T00:04:07;92804.66;;;19.72;100.00
10606;BME280;5350;42.698;23.148;2023-08-30T00:06:33;92797.59;;;19.57;100.00
10606;BME280;5350;42.698;23.148;2023-08-30T00:09:00;92789.13;;;19.48;100.00
10606;BME280;5350;42.698;23.148;2023-08-30T00:11:28;92788.31;;;19.44;100.00
10606;BME280;5350;42.698;23.148;2023-08-30T00:14:02;92784.88;;;19.44;100.00
10606;BME280;5350;42.698;23.148;2023-08-30T00:16:30;92785.44;;;19.30;100.00
10606;BME280;5350;42.698;23.148;2023-08-30T00:18:57;92788.06;;;19.27;100.00
10606;BME280;5350;42.698;23.148;2023-08-30T00:21:24;92769.78;;;19.25;100.00
10606;BME280;5350;42.698;23.148;2023-08-30T00:23:52;92783.94;;;19.03;100.00
10606;BME280;5350;42.698;23.148;2023-08-30T00:26:19;92774.03;;;19.00;100.00
10606;BME280;5350;42.698;23.148;2023-08-30T00:28:46;92774.91;;;19.11;100.00
10606;BME280;5350;42.698;23.148;2023-08-30T00:31:14;92777.16;;;19.09;100.00
10606;BME280;5350;42.698;23.148;2023-08-30T00:33:40;92780.25;;;19.11;100.00
10606;BME280;5350;42.698;23.148;2023-08-30T00:36:07;92784.06;;;18.84;100.00
10606;BME280;5350;42.698;23.148;2023-08-30T00:38:34;92783.75;;;18.89;100.00
10606;BME280;5350;42.698;23.148;2023-08-30T00:41:00;92787.91;;;18.86;100.00
10606;BME280;5350;42.698;23.148;2023-08-30T00:43:27;92792.16;;;18.91;100.00
10606;BME280;5350;42.698;23.148;2023-08-30T00:45:54;92795.03;;;18.79;100.00
10606;BME280;5350;42.698;23.148;2023-08-30T00:48:22;92806.00;;;18.74;100.00
10606;BME280;5350;42.698;23.148;2023-08-30T00:50:49;92810.97;;;18.75;100.00
10606;BME280;5350;42.698;23.148;2023-08-30T00:53:16;92809.31;;;18.67;100.00
10606;BME280;5350;42.698;23.148;2023-08-30T00:55:43;92807.91;;;18.51;100.00
10606;BME280;5350;42.698;23.148;2023-08-30T00:58:10;92806.91;;;18.59;100.00
10606;BME280;5350;42.698;23.148;2023-08-30T01:00:38;92803.66;;;18.69;100.00
10606;BME280;5350;42.698;23.148;2023-08-30T01:03:06;92817.25;;;18.64;100.00
10606;BME280;5350;42.698;23.148;2023-08-30T01:05:35;92813.50;;;18.65;100.00
10606;BME280;5350;42.698;23.148;2023-08-30T01:08:02;92818.75;;;18.61;100.00
10606;BME280;5350;42.698;23.148;2023-08-30T01:10:47;92805.97;;;18.25;100.00
10606;BME280;5350;42.698;23.148;2023-08-30T01:13:19;92812.50;;;18.50;100.00
10606;BME280;5350;42.698;23.148;2023-08-30T01:15:47;92818.56;;;18.51;100.00
10606;BME280;5350;42.698;23.148;2023-08-30T01:18:17;92824.59;;;18.25;100.00
10606;BME280;5350;42.698;23.148;2023-08-30T01:20:47;92829.09;;;18.21;100.00
10606;BME280;5350;42.698;23.148;2023-08-30T01:23:24;92826.84;;;18.23;100.00
10606;BME280;5350;42.698;23.148;2023-08-30T01:25:57;92820.03;;;18.25;100.00
10606;BME280;5350;42.698;23.148;2023-08-30T01:28:29;92825.47;;;18.32;100.00
10606;BME280;5350;42.698;23.148;2023-08-30T01:30:57;92820.97;;;18.36;100.00
10606;BME280;5350;42.698;23.148;2023-08-30T01:33:25;92821.03;;;18.40;100.00
10606;BME280;5350;42.698;23.148;2023-08-30T01:35:54;92830.66;;;18.45;100.00
10606;BME280;5350;42.698;23.148;2023-08-30T01:38:23;92817.47;;;18.52;100.00
10606;BME280;5350;42.698;23.148;2023-08-30T01:40:51;92810.47;;;18.21;100.00
10606;BME280;5350;42.698;23.148;2023-08-30T01:43:20;92811.94;;;18.18;100.00
10606;BME280;5350;42.698;23.148;2023-08-30T01:45:48;92812.59;;;18.34;100.00
10606;BME280;5350;42.698;23.148;2023-08-30T01:48:16;92816.81;;;18.35;100.00
10606;BME280;5350;42.698;23.148;2023-08-30T01:50:44;92811.72;;;18.27;100.00
10606;BME280;5350;42.698;23.148;2023-08-30T01:53:12;92808.63;;;18.25;100.00
10606;BME280;5350;42.698;23.148;2023-08-30T01:55:39;92811.63;;;18.23;100.00
10606;BME280;5350;42.698;23.148;2023-08-30T01:58:07;92816.53;;;18.21;100.00
10606;BME280;5350;42.698;23.148;2023-08-30T02:00:34;92809.38;;;18.25;100.00
10606;BME280;5350;42.698;23.148;2023-08-30T02:03:08;92815.91;;;18.28;100.00
10606;BME280;5350;42.698;23.148;2023-08-30T02:05:37;92811.88;;;18.15;100.00
10606;BME280;5350;42.698;23.148;2023-08-30T02:08:12;92813.13;;;18.21;100.00
10606;BME280;5350;42.698;23.148;2023-08-30T02:10:42;92816.06;;;18.16;100.00
10606;BME280;5350;42.698;23.148;2023-08-30T02:13:11;92807.84;;;18.02;100.00
10606;BME280;5350;42.698;23.148;2023-08-30T02:15:40;92805.47;;;18.19;100.00
10606;BME280;5350;42.698;23.148;2023-08-30T02:18:09;92798.56;;;18.15;100.00
10606;BME280;5350;42.698;23.148;2023-08-30T02:20:36;92804.00;;;18.22;100.00
10606;BME280;5350;42.698;23.148;2023-08-30T02:23:03;92801.41;;;18.25;100.00
10606;BME280;5350;42.698;23.148;2023-08-30T02:25:30;92806.22;;;18.16;100.00
10606;BME280;5350;42.698;23.148;2023-08-30T02:27:57;92800.41;;;18.11;100.00
10606;BME280;5350;42.698;23.148;2023-08-30T02:30:23;92808.03;;;18.12;100.00
10606;BME280;5350;42.698;23.148;2023-08-30T02:32:50;92802.13;;;18.00;100.00
10606;BME280;5350;42.698;23.148;2023-08-30T02:35:18;92810.81;;;17.97;100.00
10606;BME280;5350;42.698;23.148;2023-08-30T02:37:45;92805.78;;;17.92;100.00
10606;BME280;5350;42.698;23.148;2023-08-30T02:40:11;92801.22;;;17.92;100.00
10606;BME280;5350;42.698;23.148;2023-08-30T02:42:38;92799.78;;;17.98;100.00
10606;BME280;5350;42.698;23.148;2023-08-30T02:45:06;92798.28;;;17.97;100.00
10606;BME280;5350;42.698;23.148;2023-08-30T02:47:33;92795.19;;;17.95;100.00
10606;BME280;5350;42.698;23.148;2023-08-30T02:49:59;92792.81;;;17.90;100.00
10606;BME280;5350;42.698;23.148;2023-08-30T02:52:27;92792.59;;;17.99;100.00
10606;BME280;5350;42.698;23.148;2023-08-30T02:54:54;92788.22;;;17.87;100.00
10606;BME280;5350;42.698;23.148;2023-08-30T02:57:21;92790.97;;;17.72;100.00
10606;BME280;5350;42.698;23.148;2023-08-30T02:59:47;92797.19;;;17.79;100.00
10606;BME280;5350;42.698;23.148;2023-08-30T03:02:14;92794.34;;;17.49;100.00
10606;BME280;5350;42.698;23.148;2023-08-30T03:04:41;92804.28;;;17.52;100.00
10606;BME280;5350;42.698;23.148;2023-08-30T03:07:07;92804.03;;;17.42;100.00
10606;BME280;5350;42.698;23.148;2023-08-30T03:09:36;92809.28;;;17.38;100.00
10606;BME280;5350;42.698;23.148;2023-08-30T03:12:04;92813.09;;;17.37;100.00
10606;BME280;5350;42.698;23.148;2023-08-30T03:14:31;92810.91;;;17.24;100.00
10606;BME280;5350;42.698;23.148;2023-08-30T03:16:58;92800.97;;;17.21;100.00
10606;BME280;5350;42.698;23.148;2023-08-30T03:19:24;92792.78;;;17.29;100.00
10606;BME280;5350;42.698;23.148;2023-08-30T03:21:51;92786.28;;;17.27;100.00
10606;BME280;5350;42.698;23.148;2023-08-30T03:24:18;92778.16;;;17.39;100.00
10606;BME280;5350;42.698;23.148;2023-08-30T03:26:46;92770.91;;;17.55;100.00
10606;BME280;5350;42.698;23.148;2023-08-30T03:29:13;92779.41;;;17.45;100.00
10606;BME280;5350;42.698;23.148;2023-08-30T03:31:39;92779.00;;;17.43;100.00
10606;BME280;5350;42.698;23.148;2023-08-30T03:34:06;92775.94;;;17.41;100.00
10606;BME280;5350;42.698;23.148;2023-08-30T03:36:33;92773.13;;;17.34;100.00
10606;BME280;5350;42.698;23.148;2023-08-30T03:38:59;92773.41;;;17.29;100.00
10606;BME280;5350;42.698;23.148;2023-08-30T03:41:26;92766.50;;;17.24;100.00
10606;BME280;5350;42.698;23.148;2023-08-30T03:43:54;92763.81;;;17.05;100.00
10606;BME280;5350;42.698;23.148;2023-08-30T03:46:21;92762.31;;;17.04;100.00
10606;BME280;5350;42.698;23.148;2023-08-30T03:48:47;92778.53;;;16.84;100.00
10606;BME280;5350;42.698;23.148;2023-08-30T03:51:14;92780.53;;;16.71;100.00
10606;BME280;5350;42.698;23.148;2023-08-30T03:53:41;92792.34;;;16.73;100.00
10606;BME280;5350;42.698;23.148;2023-08-30T03:56:07;92796.19;;;16.92;100.00
10606;BME280;5350;42.698;23.148;2023-08-30T03:58:34;92790.31;;;17.02;100.00
10606;BME280;5350;42.698;23.148;2023-08-30T04:01:04;92792.00;;;17.10;100.00
10606;BME280;5350;42.698;23.148;2023-08-30T04:03:32;92784.94;;;17.17;100.00
10606;BME280;5350;42.698;23.148;2023-08-30T04:05:58;92787.47;;;17.29;100.00
10606;BME280;5350;42.698;23.148;2023-08-30T04:08:25;92782.13;;;17.48;100.00
10606;BME280;5350;42.698;23.148;2023-08-30T04:10:53;92785.53;;;17.65;100.00
10606;BME280;5350;42.698;23.148;2023-08-30T04:13:20;92788.72;;;17.74;100.00
10606;BME280;5350;42.698;23.148;2023-08-30T04:15:47;92807.13;;;17.82;100.00
10606;BME280;5350;42.698;23.148;2023-08-30T04:18:15;92829.94;;;17.83;100.00
10606;BME280;5350;42.698;23.148;2023-08-30T04:20:43;92865.16;;;17.77;100.00
10606;BME280;5350;42.698;23.148;2023-08-30T04:23:11;92890.00;;;17.84;100.00
10606;BME280;5350;42.698;23.148;2023-08-30T04:25:37;92877.63;;;17.73;100.00
10606;BME280;5350;42.698;23.148;2023-08-30T04:28:05;92839.75;;;17.79;100.00
10606;BME280;5350;42.698;23.148;2023-08-30T04:30:31;92854.22;;;17.82;100.00
10606;BME280;5350;42.698;23.148;2023-08-30T04:32:58;92874.19;;;17.91;100.00
10606;BME280;5350;42.698;23.148;2023-08-30T04:35:27;92884.69;;;17.84;100.00
10606;BME280;5350;42.698;23.148;2023-08-30T04:37:54;92884.09;;;17.94;100.00
10606;BME280;5350;42.698;23.148;2023-08-30T04:40:21;92908.13;;;17.79;100.00
10606;BME280;5350;42.698;23.148;2023-08-30T04:42:47;92923.59;;;17.54;100.00
10606;BME280;5350;42.698;23.148;2023-08-30T04:45:14;92936.28;;;17.45;100.00
10606;BME280;5350;42.698;23.148;2023-08-30T04:47:41;92932.34;;;17.39;100.00
10606;BME280;5350;42.698;23.148;2023-08-30T04:50:09;92895.13;;;17.39;100.00
10606;BME280;5350;42.698;23.148;2023-08-30T04:52:37;92871.47;;;17.34;100.00
10606;BME280;5350;42.698;23.148;2023-08-30T04:55:04;92880.84;;;17.47;100.00
10606;BME280;5350;42.698;23.148;2023-08-30T04:57:31;92873.09;;;17.38;100.00
10606;BME280;5350;42.698;23.148;2023-08-30T04:59:58;92884.19;;;17.25;100.00
10606;BME280;5350;42.698;23.148;2023-08-30T05:02:25;92880.41;;;17.26;100.00
10606;BME280;5350;42.698;23.148;2023-08-30T05:04:51;92873.94;;;17.08;100.00
10606;BME280;5350;42.698;23.148;2023-08-30T05:07:18;92874.44;;;17.13;100.00
10606;BME280;5350;42.698;23.148;2023-08-30T05:09:46;92870.75;;;17.18;100.00
10606;BME280;5350;42.698;23.148;2023-08-30T05:12:13;92875.94;;;17.30;100.00
10606;BME280;5350;42.698;23.148;2023-08-30T05:14:39;92876.94;;;17.41;100.00
10606;BME280;5350;42.698;23.148;2023-08-30T05:17:07;92876.06;;;17.52;100.00
10606;BME280;5350;42.698;23.148;2023-08-30T05:19:33;92861.44;;;17.62;100.00
10606;BME280;5350;42.698;23.148;2023-08-30T05:22:00;92865.63;;;17.82;100.00
10606;BME280;5350;42.698;23.148;2023-08-30T05:24:27;92867.19;;;17.83;100.00
10606;BME280;5350;42.698;23.148;2023-08-30T05:26:55;92867.44;;;17.97;100.00
10606;BME280;5350;42.698;23.148;2023-08-30T05:29:22;92862.13;;;17.97;100.00
10606;BME280;5350;42.698;23.148;2023-08-30T05:31:49;92863.94;;;18.12;100.00
10606;BME280;5350;42.698;23.148;2023-08-30T05:34:15;92864.03;;;18.19;100.00
10606;BME280;5350;42.698;23.148;2023-08-30T05:36:42;92866.25;;;18.36;100.00
10606;BME280;5350;42.698;23.148;2023-08-30T05:39:09;92864.25;;;18.53;100.00
10606;BME280;5350;42.698;23.148;2023-08-30T05:41:35;92860.28;;;18.66;100.00
10606;BME280;5350;42.698;23.148;2023-08-30T05:44:05;92859.81;;;18.83;100.00
10606;BME280;5350;42.698;23.148;2023-08-30T05:46:31;92857.88;;;19.06;100.00
10606;BME280;5350;42.698;23.148;2023-08-30T05:48:58;92864.38;;;19.35;100.00
10606;BME280;5350;42.698;23.148;2023-08-30T05:51:26;92863.03;;;19.48;100.00
10606;BME280;5350;42.698;23.148;2023-08-30T05:53:52;92863.91;;;19.59;100.00
10606;BME280;5350;42.698;23.148;2023-08-30T05:56:19;92865.59;;;19.70;100.00
10606;BME280;5350;42.698;23.148;2023-08-30T05:58:46;92880.31;;;19.90;100.00
10606;BME280;5350;42.698;23.148;2023-08-30T06:01:14;92875.63;;;20.14;100.00
10606;BME280;5350;42.698;23.148;2023-08-30T06:03:40;92875.31;;;20.19;100.00
10606;BME280;5350;42.698;23.148;2023-08-30T06:06:07;92883.78;;;20.24;100.00
10606;BME280;5350;42.698;23.148;2023-08-30T06:08:34;92890.78;;;20.39;99.04
10606;BME280;5350;42.698;23.148;2023-08-30T06:11:00;92886.34;;;20.54;100.00
10606;BME280;5350;42.698;23.148;2023-08-30T06:13:27;92887.34;;;20.79;100.00
10606;BME280;5350;42.698;23.148;2023-08-30T06:15:54;92890.19;;;21.00;100.00
10606;BME280;5350;42.698;23.148;2023-08-30T06:18:22;92884.63;;;21.19;100.00
10606;BME280;5350;42.698;23.148;2023-08-30T06:20:49;92889.28;;;21.29;100.00
10606;BME280;5350;42.698;23.148;2023-08-30T06:23:18;92880.16;;;21.41;100.00
10606;BME280;5350;42.698;23.148;2023-08-30T06:25:45;92872.53;;;21.46;100.00
10606;BME280;5350;42.698;23.148;2023-08-30T06:28:11;92887.91;;;21.60;100.00
10606;BME280;5350;42.698;23.148;2023-08-30T06:30:38;92886.09;;;21.75;100.00
10606;BME280;5350;42.698;23.148;2023-08-30T06:33:05;92880.81;;;21.89;100.00
10606;BME280;5350;42.698;23.148;2023-08-30T06:35:36;92888.09;;;21.92;100.00
10606;BME280;5350;42.698;23.148;2023-08-30T06:38:04;92885.44;;;21.92;100.00
10606;BME280;5350;42.698;23.148;2023-08-30T06:40:31;92889.66;;;22.00;100.00
10606;BME280;5350;42.698;23.148;2023-08-30T06:42:57;92887.03;;;22.10;100.00
10606;BME280;5350;42.698;23.148;2023-08-30T06:45:24;92880.13;;;22.09;100.00
10606;BME280;5350;42.698;23.148;2023-08-30T06:47:51;92885.88;;;22.04;100.00
10606;BME280;5350;42.698;23.148;2023-08-30T06:50:18;92892.00;;;22.05;100.00
10606;BME280;5350;42.698;23.148;2023-08-30T06:52:46;92892.00;;;22.08;100.00
10606;BME280;5350;42.698;23.148;2023-08-30T06:55:13;92885.91;;;22.15;100.00
10606;BME280;5350;42.698;23.148;2023-08-30T06:57:39;92888.19;;;22.20;100.00
10606;BME280;5350;42.698;23.148;2023-08-30T07:00:07;92891.28;;;22.25;100.00
10606;BME280;5350;42.698;23.148;2023-08-30T07:02:37;92894.75;;;22.30;100.00
10606;BME280;5350;42.698;23.148;2023-08-30T07:05:04;92894.38;;;22.42;100.00
10606;BME280;5350;42.698;23.148;2023-08-30T07:07:32;92890.19;;;22.51;100.00
10606;BME280;5350;42.698;23.148;2023-08-30T07:10:00;92893.31;;;22.71;100.00
10606;BME280;5350;42.698;23.148;2023-08-30T07:12:26;92896.78;;;22.85;100.00
10606;BME280;5350;42.698;23.148;2023-08-30T07:14:53;92909.03;;;22.93;99.32
10606;BME280;5350;42.698;23.148;2023-08-30T07:17:20;92905.56;;;23.18;100.00
10606;BME280;5350;42.698;23.148;2023-08-30T07:19:47;92910.97;;;23.21;92.50
10606;BME280;5350;42.698;23.148;2023-08-30T07:22:14;92910.19;;;23.35;90.87
10606;BME280;5350;42.698;23.148;2023-08-30T07:24:42;92912.50;;;23.50;87.55
10606;BME280;5350;42.698;23.148;2023-08-30T07:27:10;92908.25;;;23.56;83.95
10606;BME280;5350;42.698;23.148;2023-08-30T07:29:36;92910.59;;;23.51;84.56
10606;BME280;5350;42.698;23.148;2023-08-30T07:32:04;92908.28;;;23.53;85.71
10606;BME280;5350;42.698;23.148;2023-08-30T07:34:31;92913.22;;;23.61;88.04
10606;BME280;5350;42.698;23.148;2023-08-30T07:36:57;92918.22;;;23.66;87.86
10606;BME280;5350;42.698;23.148;2023-08-30T07:39:24;92885.25;;;23.52;86.75
10606;BME280;5350;42.698;23.148;2023-08-30T07:41:51;92904.00;;;23.80;82.71
10606;BME280;5350;42.698;23.148;2023-08-30T07:44:19;92911.59;;;23.99;86.89
10606;BME280;5350;42.698;23.148;2023-08-30T07:46:46;92912.34;;;24.17;73.07
10606;BME280;5350;42.698;23.148;2023-08-30T07:49:13;92911.97;;;24.15;71.25
10606;BME280;5350;42.698;23.148;2023-08-30T07:51:40;92915.03;;;24.17;68.64
10606;BME280;5350;42.698;23.148;2023-08-30T07:54:06;92910.81;;;24.13;65.17
10606;BME280;5350;42.698;23.148;2023-08-30T07:56:33;92915.72;;;24.28;63.37
10606;BME280;5350;42.698;23.148;2023-08-30T07:59:00;92917.63;;;24.31;67.29
10606;BME280;5350;42.698;23.148;2023-08-30T08:01:28;92920.28;;;24.42;67.22
10606;BME280;5350;42.698;23.148;2023-08-30T08:03:55;92917.19;;;24.43;68.33
10606;BME280;5350;42.698;23.148;2023-08-30T08:06:22;92918.66;;;24.58;69.06
10606;BME280;5350;42.698;23.148;2023-08-30T08:08:48;92913.59;;;24.75;68.32
10606;BME280;5350;42.698;23.148;2023-08-30T08:11:15;92914.00;;;24.66;70.11
10606;BME280;5350;42.698;23.148;2023-08-30T08:13:42;92912.41;;;24.79;68.79
10606;BME280;5350;42.698;23.148;2023-08-30T08:16:09;92923.81;;;25.01;72.43
10606;BME280;5350;42.698;23.148;2023-08-30T08:18:37;92926.38;;;25.15;70.50
10606;BME280;5350;42.698;23.148;2023-08-30T08:21:03;92926.63;;;25.31;70.85
10606;BME280;5350;42.698;23.148;2023-08-30T08:23:30;92932.09;;;25.24;67.11
10606;BME280;5350;42.698;23.148;2023-08-30T08:25:57;92928.69;;;25.13;69.81
10606;BME280;5350;42.698;23.148;2023-08-30T08:28:24;92927.84;;;25.23;67.48
10606;BME280;5350;42.698;23.148;2023-08-30T08:30:51;92937.50;;;25.17;66.29
10606;BME280;5350;42.698;23.148;2023-08-30T08:33:18;92939.22;;;25.48;67.00
10606;BME280;5350;42.698;23.148;2023-08-30T08:35:47;92928.75;;;25.57;70.98
10606;BME280;5350;42.698;23.148;2023-08-30T08:38:14;92931.66;;;25.73;67.48
10606;BME280;5350;42.698;23.148;2023-08-30T08:40:41;92937.63;;;25.91;70.35
10606;BME280;5350;42.698;23.148;2023-08-30T08:43:10;92938.25;;;26.09;59.41
10606;BME280;5350;42.698;23.148;2023-08-30T08:45:37;92932.59;;;26.31;57.29
10606;BME280;5350;42.698;23.148;2023-08-30T08:48:06;92923.09;;;26.53;54.13
10606;BME280;5350;42.698;23.148;2023-08-30T08:50:33;92913.00;;;26.27;56.77
10606;BME280;5350;42.698;23.148;2023-08-30T08:53:02;92912.25;;;26.56;56.11
10606;BME280;5350;42.698;23.148;2023-08-30T08:55:31;92909.25;;;26.51;54.98
10606;BME280;5350;42.698;23.148;2023-08-30T08:57:58;92901.28;;;26.70;53.44
10606;BME280;5350;42.698;23.148;2023-08-30T09:00:25;92906.78;;;26.63;52.17
10606;BME280;5350;42.698;23.148;2023-08-30T09:02:53;92894.78;;;26.38;54.15
10606;BME280;5350;42.698;23.148;2023-08-30T09:05:20;92898.47;;;26.51;52.41
10606;BME280;5350;42.698;23.148;2023-08-30T09:07:47;92896.81;;;26.30;52.12
10606;BME280;5350;42.698;23.148;2023-08-30T09:10:20;92891.56;;;26.20;55.13
10606;BME280;5350;42.698;23.148;2023-08-30T09:12:47;92887.13;;;26.33;57.89
10606;BME280;5350;42.698;23.148;2023-08-30T09:15:13;92886.78;;;26.61;55.54
10606;BME280;5350;42.698;23.148;2023-08-30T09:17:41;92896.06;;;26.86;53.33
10606;BME280;5350;42.698;23.148;2023-08-30T09:20:08;92887.75;;;27.01;53.34
10606;BME280;5350;42.698;23.148;2023-08-30T09:22:36;92890.41;;;27.27;49.64
10606;BME280;5350;42.698;23.148;2023-08-30T09:25:04;92882.13;;;27.15;51.43
10606;BME280;5350;42.698;23.148;2023-08-30T09:27:35;92882.06;;;27.18;50.75
10606;BME280;5350;42.698;23.148;2023-08-30T09:30:04;92889.16;;;27.35;46.56
10606;BME280;5350;42.698;23.148;2023-08-30T09:32:38;92880.88;;;27.46;45.75
10606;BME280;5350;42.698;23.148;2023-08-30T09:35:05;92887.84;;;27.66;45.34
10606;BME280;5350;42.698;23.148;2023-08-30T09:37:32;92893.78;;;27.58;45.90
10606;BME280;5350;42.698;23.148;2023-08-30T09:39:59;92891.91;;;27.55;46.88
10606;BME280;5350;42.698;23.148;2023-08-30T09:42:27;92882.09;;;27.64;47.30
10606;BME280;5350;42.698;23.148;2023-08-30T09:44:56;92880.94;;;27.85;47.50
10606;BME280;5350;42.698;23.148;2023-08-30T09:47:24;92875.63;;;28.21;43.74
10606;BME280;5350;42.698;23.148;2023-08-30T09:49:54;92875.94;;;28.07;44.24
10606;BME280;5350;42.698;23.148;2023-08-30T09:52:23;92867.59;;;28.17;47.05
10606;BME280;5350;42.698;23.148;2023-08-30T09:54:51;92872.50;;;28.42;44.76
10606;BME280;5350;42.698;23.148;2023-08-30T09:57:18;92856.06;;;28.33;42.57
10606;BME280;5350;42.698;23.148;2023-08-30T09:59:46;92868.56;;;28.27;43.32
10606;BME280;5350;42.698;23.148;2023-08-30T10:02:16;92860.66;;;28.36;44.70
10606;BME280;5350;42.698;23.148;2023-08-30T10:04:45;92878.59;;;28.46;44.30
10606;BME280;5350;42.698;23.148;2023-08-30T10:07:13;92865.03;;;28.30;43.61
10606;BME280;5350;42.698;23.148;2023-08-30T10:09:41;92868.63;;;28.43;41.44
10606;BME280;5350;42.698;23.148;2023-08-30T10:12:09;92868.19;;;28.44;43.09
10606;BME280;5350;42.698;23.148;2023-08-30T10:14:36;92865.28;;;28.55;43.42
10606;BME280;5350;42.698;23.148;2023-08-30T10:17:05;92861.75;;;28.58;40.72
10606;BME280;5350;42.698;23.148;2023-08-30T10:19:37;92861.59;;;28.65;42.20
10606;BME280;5350;42.698;23.148;2023-08-30T10:22:06;92851.97;;;28.44;42.19
10606;BME280;5350;42.698;23.148;2023-08-30T10:24:37;92852.75;;;28.81;42.24
10606;BME280;5350;42.698;23.148;2023-08-30T10:27:06;92853.69;;;29.06;41.55
10606;BME280;5350;42.698;23.148;2023-08-30T10:29:35;92853.63;;;29.10;43.30
10606;BME280;5350;42.698;23.148;2023-08-30T10:32:03;92848.28;;;29.06;43.02
10606;BME280;5350;42.698;23.148;2023-08-30T10:34:32;92850.47;;;29.11;40.84
10606;BME280;5350;42.698;23.148;2023-08-30T10:37:01;92846.00;;;29.21;40.50
10606;BME280;5350;42.698;23.148;2023-08-30T10:39:33;92838.78;;;29.47;40.71
10606;BME280;5350;42.698;23.148;2023-08-30T10:42:07;92841.66;;;29.56;38.70
10606;BME280;5350;42.698;23.148;2023-08-30T10:44:35;92837.47;;;29.39;38.42
10606;BME280;5350;42.698;23.148;2023-08-30T10:47:02;92837.81;;;29.25;41.33
10606;BME280;5350;42.698;23.148;2023-08-30T10:49:39;92829.91;;;29.46;40.82
10606;BME280;5350;42.698;23.148;2023-08-30T10:52:11;92829.66;;;29.41;39.13
10606;BME280;5350;42.698;23.148;2023-08-30T10:54:38;92835.94;;;29.21;38.46
10606;BME280;5350;42.698;23.148;2023-08-30T10:57:05;92832.03;;;29.39;39.33
10606;BME280;5350;42.698;23.148;2023-08-30T10:59:38;92827.38;;;29.39;37.64
10606;BME280;5350;42.698;23.148;2023-08-30T11:02:06;92834.16;;;29.15;37.76
10606;BME280;5350;42.698;23.148;2023-08-30T11:04:32;92842.69;;;29.46;38.06
10606;BME280;5350;42.698;23.148;2023-08-30T11:06:59;92816.41;;;29.59;35.60
10606;BME280;5350;42.698;23.148;2023-08-30T11:09:27;92826.41;;;29.46;35.14
10606;BME280;5350;42.698;23.148;2023-08-30T11:11:54;92823.06;;;29.26;36.28
10606;BME280;5350;42.698;23.148;2023-08-30T11:14:20;92829.78;;;29.66;34.17
10606;BME280;5350;42.698;23.148;2023-08-30T11:16:47;92814.06;;;29.89;34.92
10606;BME280;5350;42.698;23.148;2023-08-30T11:19:14;92830.16;;;29.52;34.37
10606;BME280;5350;42.698;23.148;2023-08-30T11:21:43;92830.50;;;29.38;35.88
10606;BME280;5350;42.698;23.148;2023-08-30T11:24:10;92829.03;;;29.65;34.92
10606;BME280;5350;42.698;23.148;2023-08-30T11:26:39;92827.69;;;29.57;35.68
10606;BME280;5350;42.698;23.148;2023-08-30T11:29:06;92817.75;;;29.67;34.10
10606;BME280;5350;42.698;23.148;2023-08-30T11:31:33;92809.72;;;29.92;35.22
10606;BME280;5350;42.698;23.148;2023-08-30T11:34:00;92804.38;;;30.17;34.14
10606;BME280;5350;42.698;23.148;2023-08-30T11:36:29;92795.06;;;30.18;34.72
10606;BME280;5350;42.698;23.148;2023-08-30T11:38:57;92792.41;;;30.02;34.00
10606;BME280;5350;42.698;23.148;2023-08-30T11:41:24;92807.19;;;30.14;36.81
10606;BME280;5350;42.698;23.148;2023-08-30T11:43:53;92789.91;;;30.49;33.37
10606;BME280;5350;42.698;23.148;2023-08-30T11:46:20;92797.84;;;30.43;32.82
10606;BME280;5350;42.698;23.148;2023-08-30T11:48:49;92782.53;;;30.62;33.27
10606;BME280;5350;42.698;23.148;2023-08-30T11:51:17;92786.84;;;30.85;31.58
10606;BME280;5350;42.698;23.148;2023-08-30T11:53:45;92775.66;;;31.08;33.44
10606;BME280;5350;42.698;23.148;2023-08-30T11:56:12;92780.88;;;31.02;33.44
10606;BME280;5350;42.698;23.148;2023-08-30T11:58:39;92784.19;;;31.19;33.18
10606;BME280;5350;42.698;23.148;2023-08-30T12:01:08;92773.50;;;30.90;32.63
10606;BME280;5350;42.698;23.148;2023-08-30T12:03:35;92777.50;;;30.60;32.41
10606;BME280;5350;42.698;23.148;2023-08-30T12:06:02;92767.09;;;30.84;30.79
10606;BME280;5350;42.698;23.148;2023-08-30T12:08:30;92779.97;;;31.18;33.02
10606;BME280;5350;42.698;23.148;2023-08-30T12:10:57;92757.53;;;31.51;28.79
10606;BME280;5350;42.698;23.148;2023-08-30T12:13:24;92770.16;;;31.33;28.55
10606;BME280;5350;42.698;23.148;2023-08-30T12:15:51;92769.97;;;31.62;29.62
10606;BME280;5350;42.698;23.148;2023-08-30T12:18:22;92762.72;;;31.80;29.35
10606;BME280;5350;42.698;23.148;2023-08-30T12:20:54;92747.13;;;31.93;28.50
10606;BME280;5350;42.698;23.148;2023-08-30T12:23:21;92758.22;;;31.65;28.82
10606;BME280;5350;42.698;23.148;2023-08-30T12:26:01;92749.84;;;31.93;28.41
10606;BME280;5350;42.698;23.148;2023-08-30T12:28:30;92745.66;;;32.01;29.90
10606;BME280;5350;42.698;23.148;2023-08-30T12:30:57;92746.91;;;32.09;28.02
10606;BME280;5350;42.698;23.148;2023-08-30T12:33:25;92753.19;;;31.97;28.75
10606;BME280;5350;42.698;23.148;2023-08-30T12:35:53;92759.34;;;32.19;26.90
10606;BME280;5350;42.698;23.148;2023-08-30T12:38:20;92749.44;;;32.35;25.85
10606;BME280;5350;42.698;23.148;2023-08-30T12:40:47;92749.84;;;32.55;27.91
10606;BME280;5350;42.698;23.148;2023-08-30T12:43:15;92749.56;;;32.53;28.65
10606;BME280;5350;42.698;23.148;2023-08-30T12:45:42;92758.00;;;32.85;28.42
10606;BME280;5350;42.698;23.148;2023-08-30T12:48:10;92754.34;;;32.88;27.28
10606;BME280;5350;42.698;23.148;2023-08-30T12:50:39;92756.31;;;32.88;24.68
10606;BME280;5350;42.698;23.148;2023-08-30T12:53:06;92753.38;;;33.13;25.68
10606;BME280;5350;42.698;23.148;2023-08-30T12:55:34;92744.81;;;33.51;25.68
10606;BME280;5350;42.698;23.148;2023-08-30T12:58:01;92730.56;;;33.38;24.74